sensor_id;sensor_type;location;lat;lon;timestamp;P1;durP1;ratioP1;P2;durP2;ratioP2
63438;SDS011;49567;48.958;8.294;2022-12-07T00:01:15;12.35;;;9.45;;
63438;SDS011;49567;48.958;8.294;2022-12-07T00:03:42;15.93;;;10.63;;
63438;SDS011;49567;48.958;8.294;2022-12-07T00:06:10;17.10;;;10.75;;
63438;SDS011;49567;48.958;8.294;2022-12-07T00:08:37;19.42;;;11.63;;
63438;SDS011;49567;48.958;8.294;2022-12-07T00:13:32;13.80;;;9.82;;
63438;SDS011;49567;48.958;8.294;2022-12-07T00:16:03;15.27;;;10.60;;
63438;SDS011;49567;48.958;8.294;2022-12-07T00:18:33;17.67;;;10.80;;
63438;SDS011;49567;48.958;8.294;2022-12-07T00:21:00;14.77;;;11.27;;
63438;SDS011;49567;48.958;8.294;2022-12-07T00:23:27;15.15;;;10.80;;
63438;SDS011;49567;48.958;8.294;2022-12-07T00:25:53;20.48;;;11.38;;
63438;SDS011;49567;48.958;8.294;2022-12-07T00:28:18;16.40;;;11.60;;
63438;SDS011;49567;48.958;8.294;2022-12-07T00:30:43;16.60;;;11.53;;
63438;SDS011;49567;48.958;8.294;2022-12-07T00:33:08;16.90;;;11.20;;
63438;SDS011;49567;48.958;8.294;2022-12-07T00:35:34;18.77;;;11.90;;
63438;SDS011;49567;48.958;8.294;2022-12-07T00:37:59;15.88;;;11.73;;
63438;SDS011;49567;48.958;8.294;2022-12-07T00:40:24;21.93;;;12.20;;
63438;SDS011;49567;48.958;8.294;2022-12-07T00:42:49;16.60;;;10.83;;
63438;SDS011;49567;48.958;8.294;2022-12-07T00:45:15;19.90;;;11.37;;
63438;SDS011;49567;48.958;8.294;2022-12-07T00:47:40;17.93;;;11.33;;
63438;SDS011;49567;48.958;8.294;2022-12-07T00:50:05;16.23;;;11.43;;
63438;SDS011;49567;48.958;8.294;2022-12-07T00:52:31;15.93;;;11.90;;
63438;SDS011;49567;48.958;8.294;2022-12-07T00:54:56;18.60;;;12.03;;
63438;SDS011;49567;48.958;8.294;2022-12-07T00:57:21;17.40;;;10.80;;
63438;SDS011;49567;48.958;8.294;2022-12-07T00:59:47;16.57;;;11.40;;
63438;SDS011;49567;48.958;8.294;2022-12-07T01:02:13;17.93;;;12.23;;
63438;SDS011;49567;48.958;8.294;2022-12-07T01:04:38;18.23;;;11.33;;
63438;SDS011;49567;48.958;8.294;2022-12-07T01:07:03;17.08;;;11.57;;
63438;SDS011;49567;48.958;8.294;2022-12-07T01:09:28;16.07;;;11.70;;
63438;SDS011;49567;48.958;8.294;2022-12-07T01:11:54;16.07;;;10.87;;
63438;SDS011;49567;48.958;8.294;2022-12-07T01:14:19;17.10;;;11.67;;
63438;SDS011;49567;48.958;8.294;2022-12-07T01:16:44;16.03;;;11.30;;
63438;SDS011;49567;48.958;8.294;2022-12-07T01:19:09;16.08;;;11.40;;
63438;SDS011;49567;48.958;8.294;2022-12-07T01:21:35;17.37;;;11.40;;
63438;SDS011;49567;48.958;8.294;2022-12-07T01:24:03;17.60;;;11.87;;
63438;SDS011;49567;48.958;8.294;2022-12-07T01:26:29;18.35;;;12.15;;
63438;SDS011;49567;48.958;8.294;2022-12-07T01:28:55;17.60;;;11.93;;
63438;SDS011;49567;48.958;8.294;2022-12-07T01:31:21;21.08;;;12.07;;
63438;SDS011;49567;48.958;8.294;2022-12-07T01:33:52;18.67;;;12.02;;
63438;SDS011;49567;48.958;8.294;2022-12-07T01:36:20;17.92;;;12.40;;
63438;SDS011;49567;48.958;8.294;2022-12-07T01:38:48;19.83;;;11.40;;
63438;SDS011;49567;48.958;8.294;2022-12-07T01:41:16;17.60;;;12.15;;
63438;SDS011;49567;48.958;8.294;2022-12-07T01:46:32;22.10;;;12.98;;
63438;SDS011;49567;48.958;8.294;2022-12-07T01:48:57;21.60;;;12.80;;
63438;SDS011;49567;48.958;8.294;2022-12-07T01:51:23;18.00;;;12.68;;
63438;SDS011;49567;48.958;8.294;2022-12-07T01:53:48;19.80;;;13.40;;
63438;SDS011;49567;48.958;8.294;2022-12-07T01:56:17;21.85;;;12.88;;
63438;SDS011;49567;48.958;8.294;2022-12-07T01:58:46;19.45;;;12.93;;
63438;SDS011;49567;48.958;8.294;2022-12-07T02:01:13;17.17;;;12.20;;
63438;SDS011;49567;48.958;8.294;2022-12-07T02:03:39;20.27;;;12.35;;
63438;SDS011;49567;48.958;8.294;2022-12-07T02:06:06;16.23;;;12.02;;
63438;SDS011;49567;48.958;8.294;2022-12-07T02:08:33;17.80;;;12.53;;
63438;SDS011;49567;48.958;8.294;2022-12-07T02:10:59;19.33;;;12.13;;
63438;SDS011;49567;48.958;8.294;2022-12-07T02:13:27;18.67;;;11.60;;
63438;SDS011;49567;48.958;8.294;2022-12-07T02:18:34;16.77;;;11.82;;
63438;SDS011;49567;48.958;8.294;2022-12-07T02:27:14;18.40;;;12.65;;
63438;SDS011;49567;48.958;8.294;2022-12-07T02:30:15;39.35;;;22.20;;
63438;SDS011;49567;48.958;8.294;2022-12-07T02:35:39;21.83;;;13.57;;
63438;SDS011;49567;48.958;8.294;2022-12-07T02:38:12;16.67;;;12.25;;
63438;SDS011;49567;48.958;8.294;2022-12-07T02:40:44;16.35;;;11.95;;
63438;SDS011;49567;48.958;8.294;2022-12-07T02:43:41;16.30;;;11.40;;
63438;SDS011;49567;48.958;8.294;2022-12-07T02:46:12;18.80;;;11.65;;
63438;SDS011;49567;48.958;8.294;2022-12-07T02:48:42;18.60;;;12.73;;
63438;SDS011;49567;48.958;8.294;2022-12-07T02:51:08;18.05;;;11.95;;
63438;SDS011;49567;48.958;8.294;2022-12-07T02:56:20;18.08;;;12.35;;
63438;SDS011;49567;48.958;8.294;2022-12-07T03:04:40;17.88;;;11.88;;
63438;SDS011;49567;48.958;8.294;2022-12-07T03:07:21;19.83;;;12.18;;
63438;SDS011;49567;48.958;8.294;2022-12-07T03:13:34;17.25;;;12.10;;
63438;SDS011;49567;48.958;8.294;2022-12-07T03:18:44;18.75;;;12.60;;
63438;SDS011;49567;48.958;8.294;2022-12-07T03:21:15;17.70;;;13.02;;
63438;SDS011;49567;48.958;8.294;2022-12-07T03:23:45;21.92;;;12.98;;
63438;SDS011;49567;48.958;8.294;2022-12-07T03:26:16;18.57;;;12.50;;
63438;SDS011;49567;48.958;8.294;2022-12-07T03:28:46;19.75;;;12.23;;
63438;SDS011;49567;48.958;8.294;2022-12-07T03:31:29;19.10;;;12.57;;
63438;SDS011;49567;48.958;8.294;2022-12-07T03:33:59;17.03;;;12.17;;
63438;SDS011;49567;48.958;8.294;2022-12-07T03:36:33;16.98;;;12.18;;
63438;SDS011;49567;48.958;8.294;2022-12-07T03:39:09;16.73;;;12.32;;
63438;SDS011;49567;48.958;8.294;2022-12-07T03:41:52;21.02;;;13.07;;
63438;SDS011;49567;48.958;8.294;2022-12-07T03:44:19;19.20;;;12.82;;
63438;SDS011;49567;48.958;8.294;2022-12-07T03:46:56;18.90;;;13.07;;
63438;SDS011;49567;48.958;8.294;2022-12-07T03:49:31;19.67;;;13.10;;
63438;SDS011;49567;48.958;8.294;2022-12-07T03:52:11;18.75;;;12.40;;
63438;SDS011;49567;48.958;8.294;2022-12-07T03:54:40;18.73;;;12.82;;
63438;SDS011;49567;48.958;8.294;2022-12-07T03:57:09;18.60;;;12.60;;
63438;SDS011;49567;48.958;8.294;2022-12-07T03:59:35;18.55;;;13.15;;
63438;SDS011;49567;48.958;8.294;2022-12-07T04:02:03;16.52;;;12.52;;
63438;SDS011;49567;48.958;8.294;2022-12-07T04:04:30;16.95;;;11.73;;
63438;SDS011;49567;48.958;8.294;2022-12-07T04:06:55;17.57;;;12.90;;
63438;SDS011;49567;48.958;8.294;2022-12-07T04:09:20;18.23;;;12.60;;
63438;SDS011;49567;48.958;8.294;2022-12-07T04:11:46;16.80;;;11.87;;
63438;SDS011;49567;48.958;8.294;2022-12-07T04:14:11;18.23;;;13.03;;
63438;SDS011;49567;48.958;8.294;2022-12-07T04:16:52;19.33;;;12.93;;
63438;SDS011;49567;48.958;8.294;2022-12-07T04:19:22;18.15;;;12.95;;
63438;SDS011;49567;48.958;8.294;2022-12-07T04:21:49;17.42;;;12.68;;
63438;SDS011;49567;48.958;8.294;2022-12-07T04:24:15;19.33;;;12.50;;
63438;SDS011;49567;48.958;8.294;2022-12-07T04:26:41;20.52;;;12.82;;
63438;SDS011;49567;48.958;8.294;2022-12-07T04:29:07;21.33;;;14.10;;
63438;SDS011;49567;48.958;8.294;2022-12-07T04:31:34;19.20;;;13.15;;
63438;SDS011;49567;48.958;8.294;2022-12-07T04:33:59;19.45;;;13.45;;
63438;SDS011;49567;48.958;8.294;2022-12-07T04:36:25;21.57;;;14.50;;
63438;SDS011;49567;48.958;8.294;2022-12-07T04:38:52;19.40;;;13.77;;
63438;SDS011;49567;48.958;8.294;2022-12-07T04:41:18;18.45;;;13.13;;
63438;SDS011;49567;48.958;8.294;2022-12-07T04:43:43;18.00;;;12.37;;
63438;SDS011;49567;48.958;8.294;2022-12-07T04:46:09;17.83;;;12.97;;
63438;SDS011;49567;48.958;8.294;2022-12-07T04:48:34;19.27;;;13.23;;
63438;SDS011;49567;48.958;8.294;2022-12-07T04:50:59;20.83;;;13.10;;
63438;SDS011;49567;48.958;8.294;2022-12-07T04:53:24;17.33;;;12.67;;
63438;SDS011;49567;48.958;8.294;2022-12-07T04:55:50;18.10;;;12.93;;
63438;SDS011;49567;48.958;8.294;2022-12-07T04:58:15;17.17;;;12.53;;
63438;SDS011;49567;48.958;8.294;2022-12-07T05:00:40;17.57;;;13.10;;
63438;SDS011;49567;48.958;8.294;2022-12-07T05:03:06;18.55;;;13.50;;
63438;SDS011;49567;48.958;8.294;2022-12-07T05:05:31;17.38;;;13.10;;
63438;SDS011;49567;48.958;8.294;2022-12-07T05:07:57;18.53;;;12.80;;
63438;SDS011;49567;48.958;8.294;2022-12-07T05:10:22;20.47;;;13.00;;
63438;SDS011;49567;48.958;8.294;2022-12-07T05:12:47;17.75;;;12.23;;
63438;SDS011;49567;48.958;8.294;2022-12-07T05:15:13;19.73;;;13.03;;
63438;SDS011;49567;48.958;8.294;2022-12-07T05:17:39;18.90;;;13.30;;
63438;SDS011;49567;48.958;8.294;2022-12-07T05:20:05;18.33;;;12.97;;
63438;SDS011;49567;48.958;8.294;2022-12-07T05:22:31;19.83;;;12.57;;
63438;SDS011;49567;48.958;8.294;2022-12-07T05:24:56;17.43;;;12.57;;
63438;SDS011;49567;48.958;8.294;2022-12-07T05:27:22;16.27;;;11.37;;
63438;SDS011;49567;48.958;8.294;2022-12-07T05:29:49;18.55;;;12.88;;
63438;SDS011;49567;48.958;8.294;2022-12-07T05:32:14;17.92;;;12.85;;
63438;SDS011;49567;48.958;8.294;2022-12-07T05:34:40;17.47;;;12.43;;
63438;SDS011;49567;48.958;8.294;2022-12-07T05:37:05;20.27;;;13.37;;
63438;SDS011;49567;48.958;8.294;2022-12-07T05:39:30;18.50;;;12.47;;
63438;SDS011;49567;48.958;8.294;2022-12-07T05:41:55;17.67;;;12.80;;
63438;SDS011;49567;48.958;8.294;2022-12-07T05:44:40;19.33;;;13.15;;
63438;SDS011;49567;48.958;8.294;2022-12-07T05:47:10;19.33;;;12.23;;
63438;SDS011;49567;48.958;8.294;2022-12-07T05:49:36;18.98;;;13.15;;
63438;SDS011;49567;48.958;8.294;2022-12-07T05:52:01;21.13;;;13.98;;
63438;SDS011;49567;48.958;8.294;2022-12-07T05:54:27;19.75;;;13.45;;
63438;SDS011;49567;48.958;8.294;2022-12-07T05:56:53;24.63;;;14.63;;
63438;SDS011;49567;48.958;8.294;2022-12-07T05:59:18;23.73;;;16.23;;
63438;SDS011;49567;48.958;8.294;2022-12-07T06:01:51;19.33;;;13.80;;
63438;SDS011;49567;48.958;8.294;2022-12-07T06:04:19;26.20;;;15.32;;
63438;SDS011;49567;48.958;8.294;2022-12-07T06:06:45;26.83;;;14.20;;
63438;SDS011;49567;48.958;8.294;2022-12-07T06:09:11;21.67;;;14.17;;
63438;SDS011;49567;48.958;8.294;2022-12-07T06:11:37;22.42;;;13.48;;
63438;SDS011;49567;48.958;8.294;2022-12-07T06:14:22;23.30;;;13.70;;
63438;SDS011;49567;48.958;8.294;2022-12-07T06:16:47;19.03;;;13.27;;
63438;SDS011;49567;48.958;8.294;2022-12-07T06:19:12;21.47;;;14.60;;
63438;SDS011;49567;48.958;8.294;2022-12-07T06:21:37;19.25;;;13.30;;
63438;SDS011;49567;48.958;8.294;2022-12-07T06:24:03;16.73;;;12.67;;
63438;SDS011;49567;48.958;8.294;2022-12-07T06:26:28;22.60;;;14.70;;
63438;SDS011;49567;48.958;8.294;2022-12-07T06:28:54;24.83;;;14.97;;
63438;SDS011;49567;48.958;8.294;2022-12-07T06:31:19;23.57;;;14.60;;
63438;SDS011;49567;48.958;8.294;2022-12-07T06:33:44;23.07;;;14.50;;
63438;SDS011;49567;48.958;8.294;2022-12-07T06:36:10;23.45;;;13.32;;
63438;SDS011;49567;48.958;8.294;2022-12-07T06:38:35;16.67;;;12.50;;
63438;SDS011;49567;48.958;8.294;2022-12-07T06:41:01;16.92;;;12.50;;
63438;SDS011;49567;48.958;8.294;2022-12-07T06:43:26;17.37;;;12.33;;
63438;SDS011;49567;48.958;8.294;2022-12-07T06:45:52;17.37;;;12.60;;
63438;SDS011;49567;48.958;8.294;2022-12-07T06:48:19;19.42;;;13.25;;
63438;SDS011;49567;48.958;8.294;2022-12-07T06:50:45;19.07;;;12.33;;
63438;SDS011;49567;48.958;8.294;2022-12-07T06:53:10;16.73;;;12.18;;
63438;SDS011;49567;48.958;8.294;2022-12-07T06:55:36;18.50;;;12.23;;
63438;SDS011;49567;48.958;8.294;2022-12-07T06:58:01;19.17;;;12.40;;
63438;SDS011;49567;48.958;8.294;2022-12-07T07:00:27;19.33;;;12.85;;
63438;SDS011;49567;48.958;8.294;2022-12-07T07:02:52;18.10;;;11.90;;
63438;SDS011;49567;48.958;8.294;2022-12-07T07:05:18;18.00;;;12.63;;
63438;SDS011;49567;48.958;8.294;2022-12-07T07:07:43;19.97;;;13.10;;
63438;SDS011;49567;48.958;8.294;2022-12-07T07:10:09;18.77;;;12.70;;
63438;SDS011;49567;48.958;8.294;2022-12-07T07:12:34;18.95;;;12.18;;
63438;SDS011;49567;48.958;8.294;2022-12-07T07:14:59;17.63;;;12.43;;
63438;SDS011;49567;48.958;8.294;2022-12-07T07:17:25;19.40;;;13.53;;
63438;SDS011;49567;48.958;8.294;2022-12-07T07:19:50;19.87;;;12.27;;
63438;SDS011;49567;48.958;8.294;2022-12-07T07:22:15;19.70;;;12.73;;
63438;SDS011;49567;48.958;8.294;2022-12-07T07:24:40;20.23;;;12.23;;
63438;SDS011;49567;48.958;8.294;2022-12-07T07:27:06;19.03;;;11.83;;
63438;SDS011;49567;48.958;8.294;2022-12-07T07:29:31;18.60;;;12.53;;
63438;SDS011;49567;48.958;8.294;2022-12-07T07:31:56;19.00;;;12.13;;
63438;SDS011;49567;48.958;8.294;2022-12-07T07:34:21;20.97;;;12.60;;
63438;SDS011;49567;48.958;8.294;2022-12-07T07:36:47;20.67;;;13.00;;
63438;SDS011;49567;48.958;8.294;2022-12-07T07:39:12;18.63;;;12.60;;
63438;SDS011;49567;48.958;8.294;2022-12-07T07:41:37;20.83;;;13.37;;
63438;SDS011;49567;48.958;8.294;2022-12-07T07:44:03;19.63;;;13.30;;
63438;SDS011;49567;48.958;8.294;2022-12-07T07:46:28;17.30;;;11.90;;
63438;SDS011;49567;48.958;8.294;2022-12-07T07:48:54;18.57;;;12.83;;
63438;SDS011;49567;48.958;8.294;2022-12-07T07:51:19;17.07;;;11.80;;
63438;SDS011;49567;48.958;8.294;2022-12-07T07:53:44;18.70;;;12.65;;
63438;SDS011;49567;48.958;8.294;2022-12-07T07:56:09;16.27;;;12.23;;
63438;SDS011;49567;48.958;8.294;2022-12-07T07:58:35;17.43;;;11.60;;
63438;SDS011;49567;48.958;8.294;2022-12-07T08:01:07;17.35;;;11.73;;
63438;SDS011;49567;48.958;8.294;2022-12-07T08:03:33;23.27;;;13.20;;
63438;SDS011;49567;48.958;8.294;2022-12-07T08:06:04;20.37;;;12.63;;
63438;SDS011;49567;48.958;8.294;2022-12-07T08:08:31;19.63;;;12.25;;
63438;SDS011;49567;48.958;8.294;2022-12-07T08:10:57;19.83;;;12.95;;
63438;SDS011;49567;48.958;8.294;2022-12-07T08:13:25;16.63;;;11.35;;
63438;SDS011;49567;48.958;8.294;2022-12-07T08:15:50;16.05;;;10.82;;
63438;SDS011;49567;48.958;8.294;2022-12-07T08:18:16;17.03;;;10.70;;
63438;SDS011;49567;48.958;8.294;2022-12-07T08:20:41;15.17;;;10.73;;
63438;SDS011;49567;48.958;8.294;2022-12-07T08:23:07;16.90;;;11.07;;
63438;SDS011;49567;48.958;8.294;2022-12-07T08:25:33;14.82;;;10.68;;
63438;SDS011;49567;48.958;8.294;2022-12-07T08:27:59;15.18;;;10.77;;
63438;SDS011;49567;48.958;8.294;2022-12-07T08:30:26;15.27;;;10.90;;
63438;SDS011;49567;48.958;8.294;2022-12-07T08:32:52;17.30;;;11.15;;
63438;SDS011;49567;48.958;8.294;2022-12-07T08:35:17;13.37;;;9.90;;
63438;SDS011;49567;48.958;8.294;2022-12-07T08:37:43;16.73;;;10.77;;
63438;SDS011;49567;48.958;8.294;2022-12-07T08:40:09;15.53;;;10.00;;
63438;SDS011;49567;48.958;8.294;2022-12-07T08:42:39;16.43;;;10.83;;
63438;SDS011;49567;48.958;8.294;2022-12-07T08:45:06;14.63;;;10.10;;
63438;SDS011;49567;48.958;8.294;2022-12-07T08:47:34;16.85;;;10.55;;
63438;SDS011;49567;48.958;8.294;2022-12-07T08:50:02;13.95;;;10.55;;
63438;SDS011;49567;48.958;8.294;2022-12-07T08:52:29;15.05;;;10.45;;
63438;SDS011;49567;48.958;8.294;2022-12-07T08:54:56;15.07;;;9.95;;
63438;SDS011;49567;48.958;8.294;2022-12-07T08:57:22;17.60;;;11.85;;
63438;SDS011;49567;48.958;8.294;2022-12-07T08:59:47;17.20;;;10.53;;
63438;SDS011;49567;48.958;8.294;2022-12-07T09:02:12;12.97;;;9.73;;
63438;SDS011;49567;48.958;8.294;2022-12-07T09:04:38;14.50;;;10.18;;
63438;SDS011;49567;48.958;8.294;2022-12-07T09:07:03;18.23;;;10.03;;
63438;SDS011;49567;48.958;8.294;2022-12-07T09:09:29;13.55;;;9.90;;
63438;SDS011;49567;48.958;8.294;2022-12-07T09:11:54;15.13;;;10.67;;
63438;SDS011;49567;48.958;8.294;2022-12-07T09:14:20;13.23;;;9.67;;
63438;SDS011;49567;48.958;8.294;2022-12-07T09:16:45;15.50;;;10.45;;
63438;SDS011;49567;48.958;8.294;2022-12-07T09:19:10;19.80;;;12.20;;
63438;SDS011;49567;48.958;8.294;2022-12-07T09:21:36;42.23;;;16.13;;
63438;SDS011;49567;48.958;8.294;2022-12-07T09:24:01;15.70;;;10.32;;
63438;SDS011;49567;48.958;8.294;2022-12-07T09:26:27;13.53;;;9.73;;
63438;SDS011;49567;48.958;8.294;2022-12-07T09:28:52;18.23;;;10.10;;
63438;SDS011;49567;48.958;8.294;2022-12-07T09:31:17;17.05;;;10.63;;
63438;SDS011;49567;48.958;8.294;2022-12-07T09:33:43;17.17;;;11.30;;
63438;SDS011;49567;48.958;8.294;2022-12-07T09:36:09;13.65;;;9.82;;
63438;SDS011;49567;48.958;8.294;2022-12-07T09:38:35;25.83;;;12.43;;
63438;SDS011;49567;48.958;8.294;2022-12-07T09:41:04;17.25;;;11.10;;
63438;SDS011;49567;48.958;8.294;2022-12-07T09:43:31;23.05;;;12.45;;
63438;SDS011;49567;48.958;8.294;2022-12-07T09:45:59;36.23;;;15.50;;
63438;SDS011;49567;48.958;8.294;2022-12-07T09:48:35;32.93;;;13.77;;
63438;SDS011;49567;48.958;8.294;2022-12-07T09:51:09;28.67;;;13.20;;
63438;SDS011;49567;48.958;8.294;2022-12-07T09:53:39;21.92;;;12.25;;
63438;SDS011;49567;48.958;8.294;2022-12-07T09:56:04;24.10;;;12.47;;
63438;SDS011;49567;48.958;8.294;2022-12-07T09:58:30;26.70;;;14.07;;
63438;SDS011;49567;48.958;8.294;2022-12-07T10:03:28;19.92;;;11.52;;
63438;SDS011;49567;48.958;8.294;2022-12-07T10:05:54;17.25;;;11.43;;
63438;SDS011;49567;48.958;8.294;2022-12-07T10:08:26;18.45;;;11.23;;
63438;SDS011;49567;48.958;8.294;2022-12-07T10:10:52;16.73;;;10.95;;
63438;SDS011;49567;48.958;8.294;2022-12-07T10:13:22;21.00;;;10.20;;
63438;SDS011;49567;48.958;8.294;2022-12-07T10:16:00;13.80;;;10.07;;
63438;SDS011;49567;48.958;8.294;2022-12-07T10:18:35;15.40;;;9.63;;
63438;SDS011;49567;48.958;8.294;2022-12-07T10:21:12;16.58;;;11.05;;
63438;SDS011;49567;48.958;8.294;2022-12-07T10:23:41;14.38;;;9.88;;
63438;SDS011;49567;48.958;8.294;2022-12-07T10:28:59;14.20;;;10.10;;
63438;SDS011;49567;48.958;8.294;2022-12-07T10:31:27;14.63;;;10.35;;
63438;SDS011;49567;48.958;8.294;2022-12-07T10:33:54;12.50;;;9.00;;
63438;SDS011;49567;48.958;8.294;2022-12-07T10:36:26;14.30;;;9.30;;
63438;SDS011;49567;48.958;8.294;2022-12-07T10:39:01;12.38;;;9.30;;
63438;SDS011;49567;48.958;8.294;2022-12-07T10:41:34;13.05;;;9.48;;
63438;SDS011;49567;48.958;8.294;2022-12-07T10:43:59;13.77;;;9.02;;
63438;SDS011;49567;48.958;8.294;2022-12-07T10:49:14;13.23;;;9.13;;
63438;SDS011;49567;48.958;8.294;2022-12-07T10:54:56;13.23;;;9.55;;
63438;SDS011;49567;48.958;8.294;2022-12-07T11:00:16;13.15;;;9.63;;
63438;SDS011;49567;48.958;8.294;2022-12-07T11:05:34;18.30;;;11.50;;
63438;SDS011;49567;48.958;8.294;2022-12-07T11:08:13;17.58;;;11.35;;
63438;SDS011;49567;48.958;8.294;2022-12-07T11:13:44;16.50;;;10.52;;
63438;SDS011;49567;48.958;8.294;2022-12-07T11:16:50;17.57;;;12.10;;
63438;SDS011;49567;48.958;8.294;2022-12-07T11:21:58;15.23;;;10.93;;
63438;SDS011;49567;48.958;8.294;2022-12-07T11:29:59;13.47;;;10.30;;
63438;SDS011;49567;48.958;8.294;2022-12-07T11:38:01;16.17;;;10.82;;
63438;SDS011;49567;48.958;8.294;2022-12-07T11:40:40;17.50;;;11.65;;
63438;SDS011;49567;48.958;8.294;2022-12-07T11:46:06;16.77;;;11.43;;
63438;SDS011;49567;48.958;8.294;2022-12-07T11:48:46;17.33;;;10.88;;
63438;SDS011;49567;48.958;8.294;2022-12-07T11:51:15;17.20;;;10.55;;
63438;SDS011;49567;48.958;8.294;2022-12-07T11:56:19;14.70;;;10.85;;
63438;SDS011;49567;48.958;8.294;2022-12-07T12:07:21;16.08;;;10.85;;
63438;SDS011;49567;48.958;8.294;2022-12-07T12:09:49;15.07;;;10.80;;
63438;SDS011;49567;48.958;8.294;2022-12-07T12:12:37;15.73;;;11.52;;
63438;SDS011;49567;48.958;8.294;2022-12-07T12:15:18;16.40;;;11.20;;
63438;SDS011;49567;48.958;8.294;2022-12-07T12:18:13;18.63;;;10.98;;
63438;SDS011;49567;48.958;8.294;2022-12-07T12:21:04;20.42;;;12.80;;
63438;SDS011;49567;48.958;8.294;2022-12-07T12:23:41;20.13;;;12.75;;
63438;SDS011;49567;48.958;8.294;2022-12-07T12:26:16;17.88;;;12.75;;
63438;SDS011;49567;48.958;8.294;2022-12-07T12:28:57;16.75;;;11.30;;
63438;SDS011;49567;48.958;8.294;2022-12-07T12:33:53;19.10;;;11.93;;
63438;SDS011;49567;48.958;8.294;2022-12-07T12:51:47;14.40;;;10.50;;
63438;SDS011;49567;48.958;8.294;2022-12-07T12:54:19;17.90;;;12.20;;
63438;SDS011;49567;48.958;8.294;2022-12-07T12:56:48;19.77;;;12.77;;
63438;SDS011;49567;48.958;8.294;2022-12-07T12:59:41;16.25;;;10.38;;
63438;SDS011;49567;48.958;8.294;2022-12-07T13:02:30;17.23;;;11.70;;
63438;SDS011;49567;48.958;8.294;2022-12-07T13:15:49;17.95;;;12.55;;
63438;SDS011;49567;48.958;8.294;2022-12-07T13:20:56;15.45;;;11.13;;
63438;SDS011;49567;48.958;8.294;2022-12-07T13:34:05;15.88;;;12.68;;
63438;SDS011;49567;48.958;8.294;2022-12-07T13:37:23;15.27;;;10.70;;
63438;SDS011;49567;48.958;8.294;2022-12-07T13:39:56;14.98;;;10.10;;
63438;SDS011;49567;48.958;8.294;2022-12-07T13:44:57;16.00;;;10.20;;
63438;SDS011;49567;48.958;8.294;2022-12-07T13:49:56;13.10;;;9.65;;
63438;SDS011;49567;48.958;8.294;2022-12-07T13:52:23;13.00;;;9.43;;
63438;SDS011;49567;48.958;8.294;2022-12-07T13:57:30;12.00;;;8.88;;
63438;SDS011;49567;48.958;8.294;2022-12-07T13:59:59;15.13;;;9.50;;
63438;SDS011;49567;48.958;8.294;2022-12-07T14:02:27;13.07;;;9.17;;
63438;SDS011;49567;48.958;8.294;2022-12-07T14:05:07;11.73;;;8.88;;
63438;SDS011;49567;48.958;8.294;2022-12-07T14:10:27;11.45;;;8.52;;
63438;SDS011;49567;48.958;8.294;2022-12-07T14:13:02;12.65;;;8.60;;
63438;SDS011;49567;48.958;8.294;2022-12-07T14:15:49;12.50;;;8.85;;
63438;SDS011;49567;48.958;8.294;2022-12-07T14:21:04;9.38;;;7.57;;
63438;SDS011;49567;48.958;8.294;2022-12-07T14:23:39;12.13;;;8.27;;
63438;SDS011;49567;48.958;8.294;2022-12-07T14:26:13;10.13;;;7.95;;
63438;SDS011;49567;48.958;8.294;2022-12-07T14:28:40;8.57;;;6.80;;
63438;SDS011;49567;48.958;8.294;2022-12-07T14:31:11;10.18;;;7.45;;
63438;SDS011;49567;48.958;8.294;2022-12-07T14:33:41;11.43;;;7.65;;
63438;SDS011;49567;48.958;8.294;2022-12-07T14:36:10;12.17;;;8.00;;
63438;SDS011;49567;48.958;8.294;2022-12-07T14:38:37;11.40;;;7.45;;
63438;SDS011;49567;48.958;8.294;2022-12-07T14:41:03;10.70;;;7.40;;
63438;SDS011;49567;48.958;8.294;2022-12-07T14:43:49;10.38;;;7.15;;
63438;SDS011;49567;48.958;8.294;2022-12-07T14:46:15;8.93;;;7.32;;
63438;SDS011;49567;48.958;8.294;2022-12-07T14:48:40;10.30;;;7.83;;
63438;SDS011;49567;48.958;8.294;2022-12-07T14:51:05;10.70;;;7.90;;
63438;SDS011;49567;48.958;8.294;2022-12-07T14:53:35;11.77;;;8.50;;
63438;SDS011;49567;48.958;8.294;2022-12-07T14:56:04;11.30;;;8.93;;
63438;SDS011;49567;48.958;8.294;2022-12-07T14:58:32;9.90;;;8.30;;
63438;SDS011;49567;48.958;8.294;2022-12-07T15:00:58;10.97;;;8.10;;
63438;SDS011;49567;48.958;8.294;2022-12-07T15:03:23;10.30;;;7.77;;
63438;SDS011;49567;48.958;8.294;2022-12-07T15:05:48;10.93;;;8.40;;
63438;SDS011;49567;48.958;8.294;2022-12-07T15:08:14;12.52;;;8.35;;
63438;SDS011;49567;48.958;8.294;2022-12-07T15:10:39;11.13;;;8.13;;
63438;SDS011;49567;48.958;8.294;2022-12-07T15:13:05;16.37;;;10.50;;
63438;SDS011;49567;48.958;8.294;2022-12-07T15:15:51;13.23;;;9.80;;
63438;SDS011;49567;48.958;8.294;2022-12-07T15:18:18;12.23;;;9.40;;
63438;SDS011;49567;48.958;8.294;2022-12-07T15:20:44;12.07;;;9.05;;
63438;SDS011;49567;48.958;8.294;2022-12-07T15:23:10;11.20;;;7.80;;
63438;SDS011;49567;48.958;8.294;2022-12-07T15:25:36;10.25;;;8.10;;
63438;SDS011;49567;48.958;8.294;2022-12-07T15:28:04;12.88;;;9.05;;
63438;SDS011;49567;48.958;8.294;2022-12-07T15:30:30;14.57;;;9.00;;
63438;SDS011;49567;48.958;8.294;2022-12-07T15:32:55;11.57;;;8.97;;
63438;SDS011;49567;48.958;8.294;2022-12-07T15:35:20;13.90;;;9.55;;
63438;SDS011;49567;48.958;8.294;2022-12-07T15:37:46;12.17;;;9.07;;
63438;SDS011;49567;48.958;8.294;2022-12-07T15:40:12;12.75;;;9.50;;
63438;SDS011;49567;48.958;8.294;2022-12-07T15:42:38;13.80;;;9.80;;
63438;SDS011;49567;48.958;8.294;2022-12-07T15:45:05;13.90;;;8.87;;
63438;SDS011;49567;48.958;8.294;2022-12-07T15:47:35;17.03;;;9.87;;
63438;SDS011;49567;48.958;8.294;2022-12-07T15:50:03;14.07;;;9.60;;
63438;SDS011;49567;48.958;8.294;2022-12-07T15:52:29;14.30;;;9.35;;
63438;SDS011;49567;48.958;8.294;2022-12-07T15:54:55;13.10;;;9.35;;
63438;SDS011;49567;48.958;8.294;2022-12-07T15:57:20;16.52;;;10.23;;
63438;SDS011;49567;48.958;8.294;2022-12-07T15:59:46;15.10;;;9.32;;
63438;SDS011;49567;48.958;8.294;2022-12-07T16:02:12;13.73;;;8.80;;
63438;SDS011;49567;48.958;8.294;2022-12-07T16:04:37;14.50;;;9.63;;
63438;SDS011;49567;48.958;8.294;2022-12-07T16:07:02;13.10;;;8.67;;
63438;SDS011;49567;48.958;8.294;2022-12-07T16:09:28;16.00;;;9.70;;
63438;SDS011;49567;48.958;8.294;2022-12-07T16:11:53;16.80;;;9.97;;
63438;SDS011;49567;48.958;8.294;2022-12-07T16:14:19;15.53;;;9.80;;
63438;SDS011;49567;48.958;8.294;2022-12-07T16:16:44;16.33;;;10.53;;
63438;SDS011;49567;48.958;8.294;2022-12-07T16:19:09;16.10;;;11.07;;
63438;SDS011;49567;48.958;8.294;2022-12-07T16:21:35;16.65;;;10.50;;
63438;SDS011;49567;48.958;8.294;2022-12-07T16:24:01;17.52;;;11.38;;
63438;SDS011;49567;48.958;8.294;2022-12-07T16:26:27;18.95;;;11.65;;
63438;SDS011;49567;48.958;8.294;2022-12-07T16:28:53;18.33;;;11.57;;
63438;SDS011;49567;48.958;8.294;2022-12-07T16:31:20;19.23;;;12.20;;
63438;SDS011;49567;48.958;8.294;2022-12-07T16:33:47;19.27;;;12.75;;
63438;SDS011;49567;48.958;8.294;2022-12-07T16:36:14;20.33;;;12.30;;
63438;SDS011;49567;48.958;8.294;2022-12-07T16:38:42;15.60;;;10.53;;
63438;SDS011;49567;48.958;8.294;2022-12-07T16:41:08;14.88;;;10.75;;
63438;SDS011;49567;48.958;8.294;2022-12-07T16:43:34;16.50;;;10.90;;
63438;SDS011;49567;48.958;8.294;2022-12-07T16:46:01;18.08;;;11.10;;